Sat, 2021 April 17. @ 14:32 (Europe/Berlin) | Change timezone

Search

Search

Find competitions and teams quickly

Compare

Compare

Click on this h2h icon anywhere to compare teams and see statistics

Fixtures

Fixtures

View today's matches, tomorrow's fixtures, yesterday's results or fixtures on any specific date by using the calendar


Fixtures - 2021.02.23

Group by: leagues | time
Time Home Score Away 1 X 2 H2H
 Soccer Argentina Primera Division 2021
01:30 Colon Santa Fe 2 : 0 San Lorenzo 2.43 3.02 2.96
 Soccer Australia A-League 2020/2021
09:05 Melbourne City 3 : 2 Sydney FC 2.46 3.43 2.67
 Soccer Austria 1. Liga 2020/2021
18:30 Dornbirn FC 3 : 1 Kapfenberger SV 2.60 3.31 2.51
18:30 Lafnitz 0 : 2 Pasching FC 1.76 3.74 3.78
 Basketball Austria Basketball Bundesliga 2020/2021
19:00 Kapfenberg Bulls 77 : 72 Klosterneuburg Dukes 1.43 15.00 2.97
 Soccer Austria Bundesliga 2020/2021
18:30 Hartberg TSV 1 : 0 Wattens 2.73 3.46 2.43
 Hockey Austria Eishockey Liga 2020/2021
19:15 Villach 2 : 4 Graz 2.34 4.26 2.39
19:15 CE Wien 3 : 4 ot(p) Salzburg 2.25 4.33 2.46
19:15 Innsbruck 5 : 2 Linz 2.19 4.47 2.50
20:15 Bolzano 4 : 3 Fehérvár AV19 1.55 4.81 4.33
 Handball Austria HLA M 2020/2021
18:00 Alpla HC Hard 31 : 22 Hurricanes Linz 1.09 18.00 9.25
 Basketball Basketball NBA 2020/2021
02:00 Houston 100 : 120 Chicago 2.02 14.50 1.94
02:30 Dallas 102 : 92 Memphis 1.51 14.75 2.87
03:00 Phoenix 132 : 100 Portland 1.46 15.00 3.03
03:00 Oklahoma City 94 : 108 Miami 3.55 15.50 1.36
03:00 Utah 132 : 110 Charlotte H. 1.12 21.00 7.30
04:00 L.A.Lakers 124 : 127 ot Washington 1.40 15.25 3.33
 Hockey CHL Kontinental Hockey League 2020/2021
11:00 Jaroslavl 4 : 1 Nižnyj Novgorod 1.65 4.70 4.21
12:30 Kazaň 4 : 3 ot Barys Astana 1.49 4.91 5.63
13:00 Čeljabinsk 2 : 4 Novosibirsk 1.56 4.60 5.13
15:00 Nižněkamsk 1 : 0 Magnitogorsk 5.06 5.19 1.50
15:00 Dynamo Moskva 6 : 0 Jekatěrinburg 1.75 4.46 3.83
15:00 Čerepovec 0 : 3 CSKA Moskva 4.26 4.81 1.64
15:00 Spartak Moskva 6 : 1 Sochi 1.35 5.94 6.88
17:30 Dynamo Minsk 5 : 6 Chabarovsk Amur 1.59 4.60 4.75
17:30 Jokerit Helsinki 3 : 2 Vitiaz Chekhov 1.86 4.51 3.43
18:30 Dinamo Riga 1 : 3 Ufa 5.19 5.16 1.50
 Handball CL Champions League M 2020/2021
18:45 Paris Handball 37 : 26 Kielce Vive KS 1.50 10.00 3.20
20:45 Nantes HBC 30 : 28 Croatia Osiguranje-Zagreb 1.07 20.00 10.50
20:45 Kiel 28 : 26 AAB Handbold 1.35 10.50 4.20
 Soccer Colombia Primera División 2021
02:00 Deportive Cali 1 : 1 Alianza Petrolera 1.42 4.01 7.74
 Soccer Croatia HR Nogometni Cup 2020/2021
14:00 Dubrovnik 1 : 4 Slaven Belupo 16.81 7.75 1.09
 Hockey Czech Republic Extraleague 2020/2021
16:30 Vítkovice 3 : 2 Mladá Boleslav 2.45 3.98 2.41
17:00 Olomouc 1 : 2 Litvínov 2.32 3.95 2.59
17:00 Liberec 4 : 2 České Budějovice 1.27 6.56 7.63
17:20 Hradec Králové 2 : 1 Pardubice 2.14 4.18 2.71
17:30 Zlín 2 : 3 Třinec 5.06 5.25 1.46
18:00 Kometa Brno 3 : 1 Karlovy Vary 1.91 4.38 3.10
 Handball Czech Republic Extraleague M 2020/2021
20:15 Karviná Baník 38 : 32 Plzeň 1.45 9.25 3.30
 Soccer Czech Republic Pohár 2020/2021
14:00 Ostrava Baník 2 : 0 Třinec 1.32 5.08 6.79
 Handball Denmark 1st League W 2020/2021
17:00 Silkeborg 27 : 25 Tvis Holstebro 1.58 8.75 3.05
18:30 Arhus SK 18 : 22 Odense HC 7.50 15.00 1.14
 Hockey Denmark SuperBest-ligaen 2020/2021
18:00 Aalborg 3 : 1 Rodovre Kobenhavn 1.31 6.19 6.38
19:00 Sonderjylland IK 4 : 3 Rungsted 3.10 5.13 1.79
20:30 Herlev 0 : 5 Esbjerg 3.65 4.85 1.66
 Soccer England Championship 2020/2021
20:00 Middlesbrough 1 : 3 Bristol City 1.62 3.71 5.94
20:00 Derby 2 : 0 Huddersfield 2.13 3.24 3.49
20:00 Birmingham 1 : 3 Norwich 5.81 3.83 1.62
20:45 Luton 1 : 1 Millwall 3.14 3.02 2.49
20:45 Wycombe 1 : 0 Reading 4.28 3.57 1.85
20:45 Rotherham 0 : 1 Nottingham 2.91 3.09 2.57
 Soccer England Conference National 2020/2021
20:00 Dagenham & Redbridge 1 : 2 Sutton UTD 3.59 3.28 2.00
20:00 Wrexham 0 : 0 Hartlepool 3.04 3.03 2.36
20:00 Solihull 1 : 2 Torquay 2.51 3.22 2.54
20:00 Maidenhead United 2 : 4 Aldershot 2.62 3.22 2.48
20:45 Chesterfield 1 : 0 Altrincham 1.74 3.67 4.18
20:45 Wealdstone 0 : 0 Eastleigh 3.17 3.59 1.97
20:45 Boreham Wood 1 : 1 Bromley 2.13 3.49 2.94
20:45 Stockport 0 : 0 Notts County 2.00 3.28 3.41
20:45 Yeovil 3 : 1 Weymouth 1.65 3.67 4.60
20:45 Kings Lynn 5 : 1 Barnet 1.99 3.34 3.25
Postp. Woking - : - Dover Athletic - - -
Postp. Halifax - : - Macclesfield - - -
 Soccer England League One 2020/2021
19:30 AFC Wimbledon 1 : 0 Gillingham 2.75 3.36 2.47
20:00 Lincoln 2 : 2 Swindon 1.51 4.03 6.26
20:00 Bristol Rovers 1 : 2 Wigan 2.02 3.51 3.45
20:00 Sunderland 2 : 0 Fleetwood Town 1.84 3.27 4.43
20:00 Hull 0 : 1 Ipswich 1.76 3.44 4.73
20:00 Shrewsbury 4 : 2 Milton Keynes 2.75 3.10 2.61
20:00 Crewe 2 : 0 Accrington Stanley 2.31 3.43 2.90
20:00 Oxford 0 : 1 Portsmouth 2.68 3.29 2.53
20:00 Northampton 0 : 0 Rochdale 2.07 3.42 3.34
20:00 Charlton 1 : 2 Burton 1.82 3.43 4.33
20:30 Plymouth 0 : 3 Peterborough 3.33 3.46 2.11
 Soccer England League Two 2020/2021
19:30 Morecambe 2 : 1 Salford City 2.92 3.30 2.37
20:00 Bolton 2 : 0 Scunthorpe 2.03 3.08 3.94
20:00 Grimsby 2 : 1 Crawley Town 2.92 3.22 2.39
20:00 Bradford 1 : 0 Leyton 2.24 3.23 3.15
20:00 Port Vale 0 : 0 Stevenage 2.17 3.21 3.37
20:00 Colchester 1 : 2 Exeter 3.50 3.21 2.10
20:00 Oldham 0 : 1 Barrow 2.41 3.47 2.72
20:00 Carlisle 2 : 3 Tranmere 2.03 3.28 3.66
20:00 Harrogate Town 1 : 0 Mansfield 2.46 3.13 2.90
20:00 Cambridge 0 : 1 Cheltenham 3.04 3.24 2.32
 Soccer England Premiership 2020/2021
19:00 Leeds 3 : 0 Southampton 2.17 3.60 3.24
 Basketball Euroleague Euroleague M 2020/2021
19:00 Žalgiris Kaunas 75 : 62 Bělehrad CZ 1.29 17.75 3.91
 Hockey Finland SM Liiga 2020/2021
17:30 Ilves Tampere 0 : 1 Kärpät 2.49 3.98 2.36
17:30 Jukurit Mikkeli 4 : 5 ot Lahti Pelicans 3.03 4.14 2.00
17:30 Jyp Jyväskylä 3 : 4 ot TPS Turku 4.22 4.65 1.61
17:30 Hämeenlinna 3 : 0 Tappara Tampere 3.78 4.28 1.73
17:30 Sport Vaasa 2 : 3 Kalpa Kuopio 2.75 4.03 2.18
17:30 KooKoo Kouvola 2 : 3 ot(p) IFK Helsinki 2.44 4.05 2.40
 Soccer France National 2020/2021
18:00 Laval 0 : 0 Cholet 1.95 3.10 3.76
18:00 Le Mans 3 : 0 Boulogne 2.79 2.71 2.64
19:00 Sete 0 : 1 Quevilly 2.84 2.84 2.50
20:00 Orleans 0 : 0 Briochin 2.26 2.95 3.11
20:00 Concarneau 0 : 0 Annecy 2.06 3.00 3.50
20:00 Cretiel 0 : 2 Lyon Duchere 2.48 2.71 2.94
 Basketball France Pro A W 2020/2021
19:00 Landes Basket 75 : 59 Landerneau Bretagne 1.23 - 3.79
20:00 Nantes Reze 49 : 87 Lyon 7.90 - 1.05
 Hockey Germany 2. Bundesliga 2020/2021
19:30 Tölzer Löwen 0 : 4 Kassel 2.40 4.56 2.23
19:30 Bietigheim 4 : 3 Heilbronn 1.66 5.06 3.49
 Soccer Germany 2. Liga 2020/2021
18:30 Paderborn 2 : 2 Heidenheim 1.FC 2.25 3.38 3.21
 Soccer Hungary Magyar Kupa 2020/2021
17:30 Mezokovesd Zsory 2 : 0 Diosgyor VTK 2.01 3.41 3.24
 Hockey Ice Hockey NHL 2020/2021
01:00 Carolina 2 : 4 Tampa Bay 2.67 4.18 2.23
01:00 Toronto 0 : 3 Calgary 1.97 4.35 3.09
01:00 NY Islanders 3 : 2 Buffalo 2.01 4.10 3.16
01:00 Florida 3 : 1 Dallas 2.34 4.14 2.56
02:00 St. Louis 0 : 3 Los Angeles 1.93 4.22 3.28
03:00 Colorado 0 : 3 Las Vegas 2.13 4.05 2.93
03:00 Arizona 4 : 3 Anaheim 2.00 4.15 3.20
04:30 San Jose 2 : 6 Minnesota 2.93 4.28 2.10
 Soccer Mexico Primera Division 2020/2021
04:00 Pachuca 1 : 1 Guadalajara 1.98 3.26 3.64
 Soccer Moldavia Divizia Nationala 2020
11:30 Codru Lozova 1 : 9 Petrocub Sarata-Galbena 24.00 11.00 1.04
13:30 Buiucani CSCA 2 : 2 Floresti 1.44 3.98 6.15
 Soccer Montenegro Prva Liga 2020/2021
13:00 Zeta Golubovci 0 : 1 Rudar Plevlja 2.34 2.76 3.16
14:00 Decic Tuzi FK 0 : 0 Jezero Plav FK 2.17 2.67 3.76
15:00 Sutjeska Niksic 2 : 2 Iskra Danilovgrad 1.89 3.06 4.04
16:00 Mladost Podgorica 0 : 1 Buducnost Podgorica 4.71 3.03 1.80
17:00 Titograd Podgorica OFK 1 : 0 Petrovac OFK 3.09 3.06 2.24
 Soccer Netherlands Eerste Divisie 2020/2021
18:45 Volendam 3 : 2 Ajax Amsterdam (Am.) 1.96 3.87 3.15
21:00 Eindhoven (Am.) 2 : 2 Helmond 2.86 3.62 2.18
 Hockey Norway Eliteserien 2020/2021
Postp. Sapsborg Sparta - : - Stavanger - - -
Postp. Frisk/Asker - : - Lillehammer - - -
Postp. Sapsborg Sparta - : - Valerenga Oslo 3.10 4.30 1.90
Postp. Grüner - : - Stavanger - - -
Postp. Valerenga Oslo - : - Lillehammer - - -
 Handball Norway Eliteserien M 2020/2021
Postp. Arendal IF - : - Fyllingen - - -
 Basketball Poland Ekstraklasa W 2020/2021
19:30 Politechnika Gdanska 75 : 91 Gdyňa Lotos - - -
 Hockey Poland Ekstraliga 2020/2021
18:00 Tychy 5 : 0 Sanok 1.19 7.50 8.42
18:30 Toruň 2 : 1 Kraków 2.25 4.24 2.40
 Soccer Portugal Liga Vitalis 2020/2021
19:00 Oliveirense UD 2 : 2 Vilafranquen 2.70 2.82 2.72
 Soccer Romania Liga II 2020/2021
18:00 Petrolol Ploiesti 1 : 0 Metaloglobus Bukurešt 1.61 3.53 5.11
 Soccer Scotland First Division 2020/2021
20:00 Caledonian Thistle 2 : 2 Alloa 1.45 4.11 6.25
 Soccer Slovakia Super Liga 2020/2021
14:00 Sereď 1 : 2 Nitra 2.32 3.04 2.96
 Basketball Spain 1st League W 2020/2021
19:30 Cadi La Seu 57 : 80 Salamanca Halcon 8.80 26.50 1.05
 Hockey Sweden Allsvenskan 2020/2021
19:00 Sodertalje SK 5 : 3 Vita Hästen 1.64 4.66 4.03
19:00 Almtuna IS 3 : 1 Tingsryds AIF 2.54 4.19 2.31
 Hockey Sweden Elitserien 2020/2021
19:00 Linköpings 2 : 5 Skelleftea AIK 2.99 4.45 1.99
19:00 Örebro HK 1 : 0 Djurgarden IF 1.85 4.39 3.45
19:40 Rogle BK 0 : 4 Farjestad 1.69 4.72 3.85
 Handball Sweden Elitserien M 2020/2021
19:00 Önnereds HK 27 : 24 Sävehof IK 4.00 10.00 1.35
19:00 Helsingborg OV 26 : 28 Aranäs HK 1.55 9.00 3.10
19:00 Ystad HK IFK 28 : 26 Lugi HK 2.90 8.75 1.62
 Soccer Switzerland Challenge League 2020/2021
18:15 Aarau FC 4 : 0 Xamax Neuchatel 1.56 4.02 4.75
18:15 Winterthur 0 : 0 Kriens 1.93 3.63 3.32
 Hockey Switzerland Nationalliga A 2020/2021
19:45 Davos 3 : 1 Langnau 1.59 5.13 4.13
19:45 Biel Bienne EHC 1 : 4 Lausanne 2.21 4.14 2.67
19:45 Servette GE 3 : 4 ot Zug 2.43 4.29 2.36
 Soccer UEFA Champions League 2020/2021
21:00 Lazio Roma 1 : 4 Bayern München 4.33 3.95 1.78
21:00 Atletico Madrid 0 : 1 Chelsea 2.79 3.01 2.82
 Soccer Uruguay Primera Division 2020
23:15 Boston River 2 : 3 Progreso 2.71 3.00 2.53

Sport statistics

  • soccer, basketball, handball and icehockey statistics from more than 150 leagues (results, tables, fixtures, other usefull statistics, bookies odds etc.)
  • other useful things: comparision of teams and leagues, streaks, selections, predictions, head-to-head
  • the statistics are updated three times each day
  • RSS feeds for the upcoming matches from each sport, just click on the RSS feed in the URL field of your browser
  • archived competitions, most of them from 2003

For a detailed description of all functions and their usage check our Help page.